sensor_id;sensor_type;location;lat;lon;timestamp;pressure;altitude;pressure_sealevel;temperature;humidity
55801;BME280;41730;51.960;20.158;2022-10-16T00:00:05;100224.63;;;16.36;61.41
55801;BME280;41730;51.960;20.158;2022-10-16T00:02:34;100218.86;;;16.24;61.51
55801;BME280;41730;51.960;20.158;2022-10-16T00:05:03;100216.43;;;16.13;61.82
55801;BME280;41730;51.960;20.158;2022-10-16T00:07:32;100217.13;;;16.09;62.04
55801;BME280;41730;51.960;20.158;2022-10-16T00:10:01;100219.65;;;16.11;62.11
55801;BME280;41730;51.960;20.158;2022-10-16T00:12:30;100216.83;;;16.18;62.08
55801;BME280;41730;51.960;20.158;2022-10-16T00:14:59;100220.29;;;16.14;62.13
55801;BME280;41730;51.960;20.158;2022-10-16T00:17:27;100218.77;;;16.18;61.92
55801;BME280;41730;51.960;20.158;2022-10-16T00:19:57;100215.02;;;16.25;61.65
55801;BME280;41730;51.960;20.158;2022-10-16T00:22:26;100213.06;;;16.20;61.55
55801;BME280;41730;51.960;20.158;2022-10-16T00:24:55;100218.63;;;16.17;61.58
55801;BME280;41730;51.960;20.158;2022-10-16T00:27:24;100216.71;;;16.27;61.52
55801;BME280;41730;51.960;20.158;2022-10-16T00:29:53;100225.83;;;16.51;60.95
55801;BME280;41730;51.960;20.158;2022-10-16T00:32:22;100227.03;;;16.52;60.82
55801;BME280;41730;51.960;20.158;2022-10-16T00:34:52;100230.70;;;16.41;61.19
55801;BME280;41730;51.960;20.158;2022-10-16T00:37:22;100230.15;;;16.23;61.31
55801;BME280;41730;51.960;20.158;2022-10-16T00:39:50;100234.33;;;16.15;61.69
55801;BME280;41730;51.960;20.158;2022-10-16T00:42:19;100230.79;;;16.13;61.58
55801;BME280;41730;51.960;20.158;2022-10-16T00:44:50;100233.87;;;16.09;61.62
55801;BME280;41730;51.960;20.158;2022-10-16T00:47:22;100231.36;;;16.03;61.80
55801;BME280;41730;51.960;20.158;2022-10-16T00:49:58;100229.98;;;16.07;62.03
55801;BME280;41730;51.960;20.158;2022-10-16T00:52:26;100232.55;;;16.02;62.28
55801;BME280;41730;51.960;20.158;2022-10-16T00:54:55;100234.35;;;16.03;62.15
55801;BME280;41730;51.960;20.158;2022-10-16T00:57:25;100235.46;;;16.07;61.83
55801;BME280;41730;51.960;20.158;2022-10-16T00:59:55;100238.14;;;16.09;61.60
55801;BME280;41730;51.960;20.158;2022-10-16T01:02:24;100233.94;;;16.25;61.24
55801;BME280;41730;51.960;20.158;2022-10-16T01:04:53;100235.62;;;16.21;61.37
55801;BME280;41730;51.960;20.158;2022-10-16T01:07:33;100241.14;;;16.15;61.61
55801;BME280;41730;51.960;20.158;2022-10-16T01:10:14;100245.29;;;16.28;61.49
55801;BME280;41730;51.960;20.158;2022-10-16T01:12:51;100246.34;;;16.28;61.70
55801;BME280;41730;51.960;20.158;2022-10-16T01:15:26;100261.55;;;16.20;61.81
55801;BME280;41730;51.960;20.158;2022-10-16T01:18:00;100259.52;;;16.19;61.72
55801;BME280;41730;51.960;20.158;2022-10-16T01:20:33;100259.73;;;16.15;61.67
55801;BME280;41730;51.960;20.158;2022-10-16T01:23:26;100259.85;;;16.17;61.43
55801;BME280;41730;51.960;20.158;2022-10-16T01:26:16;100260.24;;;16.16;61.69
55801;BME280;41730;51.960;20.158;2022-10-16T01:28:53;100256.73;;;16.29;61.20
55801;BME280;41730;51.960;20.158;2022-10-16T01:31:27;100257.45;;;16.30;61.43
55801;BME280;41730;51.960;20.158;2022-10-16T01:34:02;100250.05;;;16.17;61.78
55801;BME280;41730;51.960;20.158;2022-10-16T01:36:37;100250.63;;;16.05;62.38
55801;BME280;41730;51.960;20.158;2022-10-16T01:39:09;100247.67;;;16.12;62.08
55801;BME280;41730;51.960;20.158;2022-10-16T01:41:43;100251.07;;;16.05;62.03
55801;BME280;41730;51.960;20.158;2022-10-16T01:44:15;100248.55;;;15.95;62.19
55801;BME280;41730;51.960;20.158;2022-10-16T01:46:48;100246.46;;;15.98;62.28
55801;BME280;41730;51.960;20.158;2022-10-16T01:49:19;100241.84;;;16.17;61.59
55801;BME280;41730;51.960;20.158;2022-10-16T01:51:52;100243.23;;;16.18;61.43
55801;BME280;41730;51.960;20.158;2022-10-16T01:54:24;100241.17;;;15.99;62.11
55801;BME280;41730;51.960;20.158;2022-10-16T01:56:55;100245.20;;;15.99;62.42
55801;BME280;41730;51.960;20.158;2022-10-16T01:59:26;100244.52;;;16.09;62.23
55801;BME280;41730;51.960;20.158;2022-10-16T02:02:01;100244.44;;;16.09;62.09
55801;BME280;41730;51.960;20.158;2022-10-16T02:04:36;100251.52;;;16.01;62.13
55801;BME280;41730;51.960;20.158;2022-10-16T02:07:06;100255.31;;;15.92;62.34
55801;BME280;41730;51.960;20.158;2022-10-16T02:09:36;100256.84;;;15.99;62.08
55801;BME280;41730;51.960;20.158;2022-10-16T02:12:10;100254.49;;;15.82;62.38
55801;BME280;41730;51.960;20.158;2022-10-16T02:14:41;100260.00;;;15.65;62.75
55801;BME280;41730;51.960;20.158;2022-10-16T02:17:15;100267.19;;;15.61;62.99
55801;BME280;41730;51.960;20.158;2022-10-16T02:19:46;100263.34;;;15.67;62.73
55801;BME280;41730;51.960;20.158;2022-10-16T02:22:20;100265.98;;;15.64;62.76
55801;BME280;41730;51.960;20.158;2022-10-16T02:24:53;100269.15;;;15.48;63.10
55801;BME280;41730;51.960;20.158;2022-10-16T02:27:26;100271.29;;;15.57;62.75
55801;BME280;41730;51.960;20.158;2022-10-16T02:29:58;100270.76;;;15.50;62.79
55801;BME280;41730;51.960;20.158;2022-10-16T02:32:31;100271.22;;;15.33;63.13
55801;BME280;41730;51.960;20.158;2022-10-16T02:35:01;100271.52;;;15.30;63.23
55801;BME280;41730;51.960;20.158;2022-10-16T02:37:30;100271.44;;;15.17;63.55
55801;BME280;41730;51.960;20.158;2022-10-16T02:39:59;100271.67;;;15.11;63.72
55801;BME280;41730;51.960;20.158;2022-10-16T02:42:33;100275.23;;;15.02;63.91
55801;BME280;41730;51.960;20.158;2022-10-16T02:45:03;100282.52;;;15.03;63.91
55801;BME280;41730;51.960;20.158;2022-10-16T02:47:32;100281.54;;;15.08;64.13
55801;BME280;41730;51.960;20.158;2022-10-16T02:50:00;100284.80;;;15.18;64.03
55801;BME280;41730;51.960;20.158;2022-10-16T02:52:29;100289.61;;;15.15;64.19
55801;BME280;41730;51.960;20.158;2022-10-16T02:54:58;100290.55;;;15.02;64.52
55801;BME280;41730;51.960;20.158;2022-10-16T02:57:27;100290.62;;;15.00;64.75
55801;BME280;41730;51.960;20.158;2022-10-16T02:59:57;100289.92;;;14.96;64.89
55801;BME280;41730;51.960;20.158;2022-10-16T03:02:26;100289.86;;;14.88;64.92
55801;BME280;41730;51.960;20.158;2022-10-16T03:04:54;100288.41;;;14.78;65.04
55801;BME280;41730;51.960;20.158;2022-10-16T03:07:24;100289.02;;;14.61;65.40
55801;BME280;41730;51.960;20.158;2022-10-16T03:09:53;100295.42;;;14.62;65.44
55801;BME280;41730;51.960;20.158;2022-10-16T03:12:23;100290.71;;;14.55;65.63
55801;BME280;41730;51.960;20.158;2022-10-16T03:14:51;100290.15;;;14.53;65.70
55801;BME280;41730;51.960;20.158;2022-10-16T03:17:20;100290.08;;;14.54;65.74
55801;BME280;41730;51.960;20.158;2022-10-16T03:19:49;100290.38;;;14.52;65.65
55801;BME280;41730;51.960;20.158;2022-10-16T03:22:18;100289.77;;;14.57;65.59
55801;BME280;41730;51.960;20.158;2022-10-16T03:24:48;100293.14;;;14.58;65.80
55801;BME280;41730;51.960;20.158;2022-10-16T03:27:21;100297.45;;;14.54;65.88
55801;BME280;41730;51.960;20.158;2022-10-16T03:29:54;100296.48;;;14.51;65.97
55801;BME280;41730;51.960;20.158;2022-10-16T03:32:23;100293.04;;;14.43;66.02
55801;BME280;41730;51.960;20.158;2022-10-16T03:34:54;100294.61;;;14.41;65.86
55801;BME280;41730;51.960;20.158;2022-10-16T03:37:24;100301.17;;;14.30;65.99
55801;BME280;41730;51.960;20.158;2022-10-16T03:39:53;100300.81;;;14.26;66.28
55801;BME280;41730;51.960;20.158;2022-10-16T03:42:23;100305.83;;;14.16;66.81
55801;BME280;41730;51.960;20.158;2022-10-16T03:44:52;100305.92;;;14.05;67.21
55801;BME280;41730;51.960;20.158;2022-10-16T03:47:21;100312.17;;;13.96;67.63
55801;BME280;41730;51.960;20.158;2022-10-16T03:49:52;100312.35;;;13.96;67.31
55801;BME280;41730;51.960;20.158;2022-10-16T03:52:21;100314.00;;;13.90;67.48
55801;BME280;41730;51.960;20.158;2022-10-16T03:54:50;100312.95;;;13.90;67.19
55801;BME280;41730;51.960;20.158;2022-10-16T03:57:20;100313.43;;;13.79;67.75
55801;BME280;41730;51.960;20.158;2022-10-16T03:59:49;100311.64;;;13.78;68.10
55801;BME280;41730;51.960;20.158;2022-10-16T04:02:19;100312.83;;;13.93;67.70
55801;BME280;41730;51.960;20.158;2022-10-16T04:04:47;100312.08;;;14.05;67.67
55801;BME280;41730;51.960;20.158;2022-10-16T04:07:16;100315.69;;;13.98;67.84
55801;BME280;41730;51.960;20.158;2022-10-16T04:09:45;100316.61;;;14.00;67.49
55801;BME280;41730;51.960;20.158;2022-10-16T04:12:13;100321.48;;;13.91;67.56
55801;BME280;41730;51.960;20.158;2022-10-16T04:14:42;100320.12;;;13.81;67.53
55801;BME280;41730;51.960;20.158;2022-10-16T04:17:11;100321.30;;;13.80;67.67
55801;BME280;41730;51.960;20.158;2022-10-16T04:19:40;100320.40;;;13.84;67.80
55801;BME280;41730;51.960;20.158;2022-10-16T04:22:09;100321.07;;;13.75;68.14
55801;BME280;41730;51.960;20.158;2022-10-16T04:24:38;100316.79;;;13.83;67.98
55801;BME280;41730;51.960;20.158;2022-10-16T04:27:07;100320.11;;;13.93;67.85
55801;BME280;41730;51.960;20.158;2022-10-16T04:29:35;100322.93;;;13.87;68.24
55801;BME280;41730;51.960;20.158;2022-10-16T04:32:04;100323.36;;;13.82;68.41
55801;BME280;41730;51.960;20.158;2022-10-16T04:34:33;100327.27;;;13.74;68.67
55801;BME280;41730;51.960;20.158;2022-10-16T04:37:02;100320.30;;;13.66;68.76
55801;BME280;41730;51.960;20.158;2022-10-16T04:39:31;100331.05;;;13.77;68.58
55801;BME280;41730;51.960;20.158;2022-10-16T04:41:59;100332.89;;;13.86;68.36
55801;BME280;41730;51.960;20.158;2022-10-16T04:44:28;100333.30;;;13.95;68.10
55801;BME280;41730;51.960;20.158;2022-10-16T04:46:57;100343.66;;;13.93;68.27
55801;BME280;41730;51.960;20.158;2022-10-16T04:49:25;100345.11;;;13.98;68.48
55801;BME280;41730;51.960;20.158;2022-10-16T04:51:54;100343.01;;;13.89;68.73
55801;BME280;41730;51.960;20.158;2022-10-16T04:54:23;100347.91;;;13.88;69.41
55801;BME280;41730;51.960;20.158;2022-10-16T04:56:52;100343.41;;;13.98;68.99
55801;BME280;41730;51.960;20.158;2022-10-16T04:59:21;100338.66;;;13.98;68.92
55801;BME280;41730;51.960;20.158;2022-10-16T05:01:50;100336.95;;;13.92;69.14
55801;BME280;41730;51.960;20.158;2022-10-16T05:04:19;100349.41;;;13.89;68.93
55801;BME280;41730;51.960;20.158;2022-10-16T05:06:48;100350.85;;;13.96;69.16
55801;BME280;41730;51.960;20.158;2022-10-16T05:09:17;100355.11;;;13.90;69.68
55801;BME280;41730;51.960;20.158;2022-10-16T05:11:46;100349.95;;;14.01;69.64
55801;BME280;41730;51.960;20.158;2022-10-16T05:14:15;100337.09;;;14.11;69.26
55801;BME280;41730;51.960;20.158;2022-10-16T05:16:44;100334.56;;;14.11;69.43
55801;BME280;41730;51.960;20.158;2022-10-16T05:19:15;100342.73;;;14.20;69.28
55801;BME280;41730;51.960;20.158;2022-10-16T05:21:59;100342.61;;;14.23;69.11
55801;BME280;41730;51.960;20.158;2022-10-16T05:24:28;100340.60;;;14.23;69.04
55801;BME280;41730;51.960;20.158;2022-10-16T05:26:57;100342.73;;;14.12;69.25
55801;BME280;41730;51.960;20.158;2022-10-16T05:29:26;100351.44;;;14.10;69.90
55801;BME280;41730;51.960;20.158;2022-10-16T05:31:54;100354.82;;;14.24;69.65
55801;BME280;41730;51.960;20.158;2022-10-16T05:34:23;100356.02;;;14.28;69.53
55801;BME280;41730;51.960;20.158;2022-10-16T05:36:52;100355.61;;;14.35;69.59
55801;BME280;41730;51.960;20.158;2022-10-16T05:39:21;100353.61;;;14.35;69.61
55801;BME280;41730;51.960;20.158;2022-10-16T05:41:51;100360.05;;;14.36;69.70
55801;BME280;41730;51.960;20.158;2022-10-16T05:44:20;100360.96;;;14.49;69.71
55801;BME280;41730;51.960;20.158;2022-10-16T05:46:49;100366.75;;;14.54;69.28
55801;BME280;41730;51.960;20.158;2022-10-16T05:49:18;100367.09;;;14.60;69.18
55801;BME280;41730;51.960;20.158;2022-10-16T05:51:48;100367.02;;;14.62;68.87
55801;BME280;41730;51.960;20.158;2022-10-16T05:54:17;100368.71;;;14.62;69.31
55801;BME280;41730;51.960;20.158;2022-10-16T05:56:46;100367.38;;;14.64;69.35
55801;BME280;41730;51.960;20.158;2022-10-16T05:59:15;100368.31;;;14.69;69.27
55801;BME280;41730;51.960;20.158;2022-10-16T06:01:44;100374.94;;;14.63;69.66
55801;BME280;41730;51.960;20.158;2022-10-16T06:04:13;100375.14;;;14.66;69.77
55801;BME280;41730;51.960;20.158;2022-10-16T06:06:42;100381.96;;;14.74;69.45
55801;BME280;41730;51.960;20.158;2022-10-16T06:09:11;100376.41;;;14.91;68.89
55801;BME280;41730;51.960;20.158;2022-10-16T06:11:39;100374.49;;;15.05;68.15
55801;BME280;41730;51.960;20.158;2022-10-16T06:14:09;100376.14;;;14.97;68.44
55801;BME280;41730;51.960;20.158;2022-10-16T06:16:38;100368.38;;;14.96;68.82
55801;BME280;41730;51.960;20.158;2022-10-16T06:19:07;100367.73;;;15.09;68.70
55801;BME280;41730;51.960;20.158;2022-10-16T06:21:37;100379.66;;;15.18;68.43
55801;BME280;41730;51.960;20.158;2022-10-16T06:24:06;100399.39;;;15.09;68.61
55801;BME280;41730;51.960;20.158;2022-10-16T06:26:35;100401.86;;;14.97;69.29
55801;BME280;41730;51.960;20.158;2022-10-16T06:29:04;100406.48;;;15.00;69.30
55801;BME280;41730;51.960;20.158;2022-10-16T06:31:34;100402.10;;;15.08;68.97
55801;BME280;41730;51.960;20.158;2022-10-16T06:34:02;100401.25;;;15.13;68.91
55801;BME280;41730;51.960;20.158;2022-10-16T06:36:33;100402.32;;;15.34;68.56
55801;BME280;41730;51.960;20.158;2022-10-16T06:39:02;100401.02;;;15.55;68.46
55801;BME280;41730;51.960;20.158;2022-10-16T06:41:31;100404.38;;;15.65;68.71
55801;BME280;41730;51.960;20.158;2022-10-16T06:44:00;100409.49;;;15.92;68.74
55801;BME280;41730;51.960;20.158;2022-10-16T06:46:28;100414.38;;;16.12;68.56
55801;BME280;41730;51.960;20.158;2022-10-16T06:48:57;100410.23;;;16.41;67.86
55801;BME280;41730;51.960;20.158;2022-10-16T06:51:26;100405.34;;;16.66;67.31
55801;BME280;41730;51.960;20.158;2022-10-16T06:53:55;100402.52;;;16.77;66.68
55801;BME280;41730;51.960;20.158;2022-10-16T06:56:33;100404.30;;;16.84;66.63
55801;BME280;41730;51.960;20.158;2022-10-16T06:59:03;100405.54;;;16.95;66.31
55801;BME280;41730;51.960;20.158;2022-10-16T07:01:32;100410.94;;;16.95;66.36
55801;BME280;41730;51.960;20.158;2022-10-16T07:04:02;100409.38;;;17.18;65.82
55801;BME280;41730;51.960;20.158;2022-10-16T07:06:33;100413.01;;;17.31;65.18
55801;BME280;41730;51.960;20.158;2022-10-16T07:09:04;100419.39;;;17.21;64.87
55801;BME280;41730;51.960;20.158;2022-10-16T07:11:34;100423.61;;;16.98;65.52
55801;BME280;41730;51.960;20.158;2022-10-16T07:14:03;100430.25;;;16.99;65.47
55801;BME280;41730;51.960;20.158;2022-10-16T07:16:32;100436.85;;;17.15;65.09
55801;BME280;41730;51.960;20.158;2022-10-16T07:19:03;100438.27;;;17.40;64.68
55801;BME280;41730;51.960;20.158;2022-10-16T07:21:33;100439.70;;;17.51;64.33
55801;BME280;41730;51.960;20.158;2022-10-16T07:24:05;100442.56;;;17.43;64.60
55801;BME280;41730;51.960;20.158;2022-10-16T07:26:35;100441.36;;;17.50;64.21
55801;BME280;41730;51.960;20.158;2022-10-16T07:29:04;100441.26;;;17.43;64.25
55801;BME280;41730;51.960;20.158;2022-10-16T07:31:34;100436.58;;;17.42;64.70
55801;BME280;41730;51.960;20.158;2022-10-16T07:34:03;100441.29;;;17.56;64.46
55801;BME280;41730;51.960;20.158;2022-10-16T07:36:32;100453.82;;;17.55;64.58
55801;BME280;41730;51.960;20.158;2022-10-16T07:39:01;100457.22;;;17.51;64.90
55801;BME280;41730;51.960;20.158;2022-10-16T07:41:30;100457.81;;;17.64;64.64
55801;BME280;41730;51.960;20.158;2022-10-16T07:44:00;100464.00;;;17.77;64.59
55801;BME280;41730;51.960;20.158;2022-10-16T07:46:29;100467.39;;;18.13;64.01
55801;BME280;41730;51.960;20.158;2022-10-16T07:48:58;100467.96;;;18.46;63.57
55801;BME280;41730;51.960;20.158;2022-10-16T07:51:27;100464.17;;;18.86;63.03
55801;BME280;41730;51.960;20.158;2022-10-16T07:53:56;100459.39;;;19.29;62.25
55801;BME280;41730;51.960;20.158;2022-10-16T07:56:25;100451.89;;;19.56;61.75
55801;BME280;41730;51.960;20.158;2022-10-16T07:58:54;100452.55;;;19.56;61.61
55801;BME280;41730;51.960;20.158;2022-10-16T08:01:24;100463.64;;;19.49;61.35
55801;BME280;41730;51.960;20.158;2022-10-16T08:03:52;100460.19;;;19.64;61.11
55801;BME280;41730;51.960;20.158;2022-10-16T08:06:22;100460.28;;;19.94;60.68
55801;BME280;41730;51.960;20.158;2022-10-16T08:08:56;100461.98;;;20.16;60.15
55801;BME280;41730;51.960;20.158;2022-10-16T08:11:24;100465.65;;;20.29;59.76
55801;BME280;41730;51.960;20.158;2022-10-16T08:13:53;100469.35;;;20.38;59.09
55801;BME280;41730;51.960;20.158;2022-10-16T08:16:22;100466.89;;;20.32;59.11
55801;BME280;41730;51.960;20.158;2022-10-16T08:18:52;100468.91;;;20.18;59.52
55801;BME280;41730;51.960;20.158;2022-10-16T08:21:23;100472.98;;;20.05;59.57
55801;BME280;41730;51.960;20.158;2022-10-16T08:23:54;100473.27;;;20.03;59.48
55801;BME280;41730;51.960;20.158;2022-10-16T08:26:27;100476.04;;;20.00;59.34
55801;BME280;41730;51.960;20.158;2022-10-16T08:28:56;100480.41;;;19.86;59.46
55801;BME280;41730;51.960;20.158;2022-10-16T08:31:25;100478.13;;;19.70;59.62
55801;BME280;41730;51.960;20.158;2022-10-16T08:33:55;100486.76;;;19.72;59.40
55801;BME280;41730;51.960;20.158;2022-10-16T08:36:23;100490.40;;;19.67;59.53
55801;BME280;41730;51.960;20.158;2022-10-16T08:38:52;100496.15;;;19.57;60.00
55801;BME280;41730;51.960;20.158;2022-10-16T08:41:34;100496.16;;;19.60;60.04
55801;BME280;41730;51.960;20.158;2022-10-16T08:44:33;100494.20;;;19.65;60.16
55801;BME280;41730;51.960;20.158;2022-10-16T08:47:13;100494.48;;;19.89;59.65
55801;BME280;41730;51.960;20.158;2022-10-16T08:49:56;100498.56;;;19.96;59.25
55801;BME280;41730;51.960;20.158;2022-10-16T08:52:30;100491.23;;;19.80;59.32
55801;BME280;41730;51.960;20.158;2022-10-16T08:55:01;100496.73;;;19.82;59.16
55801;BME280;41730;51.960;20.158;2022-10-16T08:57:30;100499.20;;;19.93;58.95
55801;BME280;41730;51.960;20.158;2022-10-16T09:00:09;100498.48;;;19.88;59.07
55801;BME280;41730;51.960;20.158;2022-10-16T09:02:48;100501.98;;;20.05;58.75
55801;BME280;41730;51.960;20.158;2022-10-16T09:05:25;100506.91;;;20.08;58.75
55801;BME280;41730;51.960;20.158;2022-10-16T09:08:05;100498.98;;;20.11;58.65
55801;BME280;41730;51.960;20.158;2022-10-16T09:10:46;100495.33;;;20.10;58.64
55801;BME280;41730;51.960;20.158;2022-10-16T09:13:23;100496.14;;;20.12;58.45
55801;BME280;41730;51.960;20.158;2022-10-16T09:16:01;100498.98;;;20.12;58.44
55801;BME280;41730;51.960;20.158;2022-10-16T09:18:37;100500.16;;;20.13;58.47
55801;BME280;41730;51.960;20.158;2022-10-16T09:21:10;100498.77;;;19.97;58.98
55801;BME280;41730;51.960;20.158;2022-10-16T09:23:42;100500.80;;;20.06;59.10
55801;BME280;41730;51.960;20.158;2022-10-16T09:26:13;100505.94;;;20.14;59.14
55801;BME280;41730;51.960;20.158;2022-10-16T09:28:44;100499.39;;;20.16;59.00
55801;BME280;41730;51.960;20.158;2022-10-16T09:31:23;100498.04;;;20.19;58.98
55801;BME280;41730;51.960;20.158;2022-10-16T09:33:55;100500.35;;;20.25;58.96
55801;BME280;41730;51.960;20.158;2022-10-16T09:36:27;100503.16;;;20.34;58.75
55801;BME280;41730;51.960;20.158;2022-10-16T09:39:08;100506.14;;;20.42;58.62
55801;BME280;41730;51.960;20.158;2022-10-16T09:41:38;100497.58;;;20.46;58.42
55801;BME280;41730;51.960;20.158;2022-10-16T09:44:19;100495.23;;;20.51;58.58
55801;BME280;41730;51.960;20.158;2022-10-16T09:47:00;100488.40;;;20.54;58.66
55801;BME280;41730;51.960;20.158;2022-10-16T09:49:29;100484.58;;;20.72;58.27
55801;BME280;41730;51.960;20.158;2022-10-16T09:52:09;100491.39;;;20.85;57.87
55801;BME280;41730;51.960;20.158;2022-10-16T09:54:50;100496.91;;;20.95;57.53
55801;BME280;41730;51.960;20.158;2022-10-16T09:57:19;100493.64;;;20.84;57.79
55801;BME280;41730;51.960;20.158;2022-10-16T09:59:49;100498.27;;;20.91;57.67
55801;BME280;41730;51.960;20.158;2022-10-16T10:02:23;100499.30;;;20.96;57.50
55801;BME280;41730;51.960;20.158;2022-10-16T10:04:55;100498.77;;;20.97;57.43
55801;BME280;41730;51.960;20.158;2022-10-16T10:07:27;100494.87;;;21.01;57.22
55801;BME280;41730;51.960;20.158;2022-10-16T10:09:57;100498.50;;;21.01;57.22
55801;BME280;41730;51.960;20.158;2022-10-16T10:12:28;100495.10;;;21.04;57.35
55801;BME280;41730;51.960;20.158;2022-10-16T10:15:03;100492.66;;;21.06;57.26
55801;BME280;41730;51.960;20.158;2022-10-16T10:17:32;100492.73;;;21.00;57.38
55801;BME280;41730;51.960;20.158;2022-10-16T10:20:15;100492.60;;;21.11;57.27
55801;BME280;41730;51.960;20.158;2022-10-16T10:22:50;100496.27;;;21.23;57.00
55801;BME280;41730;51.960;20.158;2022-10-16T10:25:31;100495.17;;;21.17;57.02
55801;BME280;41730;51.960;20.158;2022-10-16T10:28:10;100493.58;;;21.19;57.07
55801;BME280;41730;51.960;20.158;2022-10-16T10:30:49;100501.37;;;21.20;57.12
55801;BME280;41730;51.960;20.158;2022-10-16T10:33:28;100496.83;;;21.33;56.84
55801;BME280;41730;51.960;20.158;2022-10-16T10:36:19;100490.55;;;21.39;56.71
55801;BME280;41730;51.960;20.158;2022-10-16T10:38:52;100485.05;;;21.44;56.55
55801;BME280;41730;51.960;20.158;2022-10-16T10:41:38;100485.31;;;21.59;56.10
55801;BME280;41730;51.960;20.158;2022-10-16T10:44:16;100485.06;;;21.58;56.02
55801;BME280;41730;51.960;20.158;2022-10-16T10:46:51;100485.58;;;21.59;55.80
55801;BME280;41730;51.960;20.158;2022-10-16T10:49:34;100494.40;;;21.55;55.85
55801;BME280;41730;51.960;20.158;2022-10-16T10:52:28;100489.25;;;21.51;55.87
55801;BME280;41730;51.960;20.158;2022-10-16T10:55:12;100489.96;;;21.44;56.09
55801;BME280;41730;51.960;20.158;2022-10-16T10:57:56;100489.10;;;21.61;55.76
55801;BME280;41730;51.960;20.158;2022-10-16T11:00:33;100486.49;;;21.69;55.68
55801;BME280;41730;51.960;20.158;2022-10-16T11:03:12;100494.98;;;21.61;56.08
55801;BME280;41730;51.960;20.158;2022-10-16T11:05:43;100494.75;;;21.64;56.26
55801;BME280;41730;51.960;20.158;2022-10-16T11:08:17;100489.31;;;21.72;56.13
55801;BME280;41730;51.960;20.158;2022-10-16T11:10:51;100489.27;;;21.73;55.96
55801;BME280;41730;51.960;20.158;2022-10-16T11:13:39;100487.14;;;21.64;56.02
55801;BME280;41730;51.960;20.158;2022-10-16T11:16:17;100485.05;;;21.57;56.25
55801;BME280;41730;51.960;20.158;2022-10-16T11:18:56;100485.64;;;21.62;55.93
55801;BME280;41730;51.960;20.158;2022-10-16T11:21:30;100481.39;;;21.62;55.96
55801;BME280;41730;51.960;20.158;2022-10-16T11:24:06;100475.84;;;21.62;56.06
55801;BME280;41730;51.960;20.158;2022-10-16T11:26:42;100468.96;;;21.67;56.00
55801;BME280;41730;51.960;20.158;2022-10-16T11:29:16;100466.45;;;21.86;55.37
55801;BME280;41730;51.960;20.158;2022-10-16T11:31:50;100468.50;;;21.86;55.55
55801;BME280;41730;51.960;20.158;2022-10-16T11:34:24;100475.26;;;21.86;55.49
55801;BME280;41730;51.960;20.158;2022-10-16T11:36:58;100473.79;;;21.82;55.68
55801;BME280;41730;51.960;20.158;2022-10-16T11:39:31;100466.98;;;21.92;55.87
55801;BME280;41730;51.960;20.158;2022-10-16T11:42:05;100464.05;;;22.09;55.60
55801;BME280;41730;51.960;20.158;2022-10-16T11:44:45;100466.18;;;22.08;55.45
55801;BME280;41730;51.960;20.158;2022-10-16T11:47:30;100467.30;;;22.15;55.35
55801;BME280;41730;51.960;20.158;2022-10-16T11:50:24;100472.98;;;22.22;55.12
55801;BME280;41730;51.960;20.158;2022-10-16T11:53:03;100470.00;;;22.27;54.91
55801;BME280;41730;51.960;20.158;2022-10-16T11:55:35;100471.98;;;22.37;54.67
55801;BME280;41730;51.960;20.158;2022-10-16T11:58:19;100472.95;;;22.20;54.81
55801;BME280;41730;51.960;20.158;2022-10-16T12:00:55;100471.86;;;22.07;55.11
55801;BME280;41730;51.960;20.158;2022-10-16T12:03:30;100472.98;;;22.10;55.15
55801;BME280;41730;51.960;20.158;2022-10-16T12:06:13;100471.80;;;22.05;55.12
55801;BME280;41730;51.960;20.158;2022-10-16T12:08:45;100467.84;;;21.91;55.53
55801;BME280;41730;51.960;20.158;2022-10-16T12:11:31;100476.85;;;21.84;55.65
55801;BME280;41730;51.960;20.158;2022-10-16T12:14:33;100483.85;;;21.94;55.49
55801;BME280;41730;51.960;20.158;2022-10-16T12:17:34;100490.26;;;22.03;55.44
55801;BME280;41730;51.960;20.158;2022-10-16T12:20:22;100482.59;;;22.10;55.51
55801;BME280;41730;51.960;20.158;2022-10-16T12:22:53;100482.73;;;22.16;55.57
55801;BME280;41730;51.960;20.158;2022-10-16T12:25:26;100481.36;;;22.25;55.59
55801;BME280;41730;51.960;20.158;2022-10-16T12:28:01;100482.27;;;22.20;55.67
55801;BME280;41730;51.960;20.158;2022-10-16T12:30:30;100484.23;;;22.19;55.61
55801;BME280;41730;51.960;20.158;2022-10-16T12:33:05;100489.58;;;22.25;55.61
55801;BME280;41730;51.960;20.158;2022-10-16T12:35:35;100485.02;;;22.24;55.51
55801;BME280;41730;51.960;20.158;2022-10-16T12:38:17;100485.36;;;22.27;55.38
55801;BME280;41730;51.960;20.158;2022-10-16T12:40:53;100488.58;;;22.39;55.12
55801;BME280;41730;51.960;20.158;2022-10-16T12:43:27;100488.00;;;22.39;54.99
55801;BME280;41730;51.960;20.158;2022-10-16T12:46:06;100480.72;;;22.23;55.27
55801;BME280;41730;51.960;20.158;2022-10-16T12:48:49;100484.06;;;22.22;55.43
55801;BME280;41730;51.960;20.158;2022-10-16T12:51:36;100491.08;;;22.29;55.24
55801;BME280;41730;51.960;20.158;2022-10-16T12:54:11;100493.40;;;22.16;55.41
55801;BME280;41730;51.960;20.158;2022-10-16T12:56:50;100493.77;;;22.10;55.58
55801;BME280;41730;51.960;20.158;2022-10-16T12:59:28;100490.48;;;22.21;55.33
55801;BME280;41730;51.960;20.158;2022-10-16T13:02:16;100491.35;;;22.12;55.72
55801;BME280;41730;51.960;20.158;2022-10-16T13:05:05;100492.95;;;22.11;55.97
55801;BME280;41730;51.960;20.158;2022-10-16T13:07:50;100494.94;;;22.22;56.03